sensor_id;sensor_type;location;lat;lon;timestamp;pressure;altitude;pressure_sealevel;temperature;humidity
12215;BME280;6170;42.206;24.142;2023-02-28T00:00:48;99324.94;;;10.20;78.88
12215;BME280;6170;42.206;24.142;2023-02-28T00:03:15;99321.16;;;10.00;80.02
12215;BME280;6170;42.206;24.142;2023-02-28T00:05:42;99318.00;;;9.96;80.18
12215;BME280;6170;42.206;24.142;2023-02-28T00:08:09;99372.31;;;10.34;80.06
12215;BME280;6170;42.206;24.142;2023-02-28T00:10:36;99334.22;;;10.09;79.66
12215;BME280;6170;42.206;24.142;2023-02-28T00:13:05;99335.91;;;10.10;79.43
12215;BME280;6170;42.206;24.142;2023-02-28T00:15:33;99339.63;;;10.24;78.72
12215;BME280;6170;42.206;24.142;2023-02-28T00:18:00;99338.50;;;10.33;78.55
12215;BME280;6170;42.206;24.142;2023-02-28T00:20:27;99390.94;;;10.57;78.25
12215;BME280;6170;42.206;24.142;2023-02-28T00:22:54;99342.75;;;10.27;78.54
12215;BME280;6170;42.206;24.142;2023-02-28T00:25:23;99344.38;;;10.14;78.71
12215;BME280;6170;42.206;24.142;2023-02-28T00:27:50;99395.06;;;10.74;77.87
12215;BME280;6170;42.206;24.142;2023-02-28T00:30:19;99321.44;;;10.19;77.63
12215;BME280;6170;42.206;24.142;2023-02-28T00:32:48;99343.13;;;10.39;77.55
12215;BME280;6170;42.206;24.142;2023-02-28T00:35:14;99337.88;;;10.31;77.93
12215;BME280;6170;42.206;24.142;2023-02-28T00:37:42;99331.13;;;10.35;77.20
12215;BME280;6170;42.206;24.142;2023-02-28T00:40:10;99385.81;;;10.76;76.84
12215;BME280;6170;42.206;24.142;2023-02-28T00:42:37;99341.72;;;10.28;77.83
12215;BME280;6170;42.206;24.142;2023-02-28T00:45:05;99381.94;;;10.79;77.32
12215;BME280;6170;42.206;24.142;2023-02-28T00:47:33;99336.25;;;10.51;77.17
12215;BME280;6170;42.206;24.142;2023-02-28T00:50:01;99329.78;;;10.46;77.24
12215;BME280;6170;42.206;24.142;2023-02-28T00:52:28;99386.19;;;10.73;77.65
12215;BME280;6170;42.206;24.142;2023-02-28T00:54:55;99327.72;;;10.26;77.88
12215;BME280;6170;42.206;24.142;2023-02-28T00:57:22;99326.94;;;10.32;77.67
12215;BME280;6170;42.206;24.142;2023-02-28T00:59:49;99379.38;;;10.56;78.04
12215;BME280;6170;42.206;24.142;2023-02-28T01:02:16;99312.84;;;10.24;78.26
12215;BME280;6170;42.206;24.142;2023-02-28T01:04:43;99332.97;;;10.34;78.27
12215;BME280;6170;42.206;24.142;2023-02-28T01:07:11;99333.31;;;10.31;78.47
12215;BME280;6170;42.206;24.142;2023-02-28T01:09:39;99336.72;;;10.40;78.33
12215;BME280;6170;42.206;24.142;2023-02-28T01:12:07;99331.72;;;10.52;77.30
12215;BME280;6170;42.206;24.142;2023-02-28T01:14:34;99330.78;;;10.45;77.98
12215;BME280;6170;42.206;24.142;2023-02-28T01:17:01;99323.38;;;10.25;78.72
12215;BME280;6170;42.206;24.142;2023-02-28T01:19:28;99319.84;;;10.25;78.54
12215;BME280;6170;42.206;24.142;2023-02-28T01:21:55;99321.63;;;10.54;77.77
12215;BME280;6170;42.206;24.142;2023-02-28T01:24:23;99322.03;;;10.51;78.16
12215;BME280;6170;42.206;24.142;2023-02-28T01:26:49;99322.34;;;10.62;77.25
12215;BME280;6170;42.206;24.142;2023-02-28T01:29:16;99321.41;;;10.49;77.23
12215;BME280;6170;42.206;24.142;2023-02-28T01:31:43;99308.50;;;10.59;77.15
12215;BME280;6170;42.206;24.142;2023-02-28T01:34:10;99369.22;;;10.52;78.30
12215;BME280;6170;42.206;24.142;2023-02-28T01:36:36;99326.03;;;10.11;78.18
12215;BME280;6170;42.206;24.142;2023-02-28T01:39:03;99323.81;;;10.00;79.52
12215;BME280;6170;42.206;24.142;2023-02-28T01:41:33;99303.53;;;9.90;79.32
12215;BME280;6170;42.206;24.142;2023-02-28T01:44:03;99306.81;;;9.48;81.11
12215;BME280;6170;42.206;24.142;2023-02-28T01:46:31;99330.34;;;9.82;80.88
12215;BME280;6170;42.206;24.142;2023-02-28T01:49:03;99323.09;;;9.76;81.10
12215;BME280;6170;42.206;24.142;2023-02-28T01:51:36;99326.69;;;9.98;79.83
12215;BME280;6170;42.206;24.142;2023-02-28T01:54:07;99337.75;;;10.10;79.04
12215;BME280;6170;42.206;24.142;2023-02-28T01:56:44;99381.06;;;10.13;79.51
12215;BME280;6170;42.206;24.142;2023-02-28T01:59:14;99343.53;;;9.55;80.31
12215;BME280;6170;42.206;24.142;2023-02-28T02:01:43;99341.00;;;9.38;81.10
12215;BME280;6170;42.206;24.142;2023-02-28T02:04:10;99407.34;;;9.80;81.42
12215;BME280;6170;42.206;24.142;2023-02-28T02:06:39;99385.34;;;9.56;81.62
12215;BME280;6170;42.206;24.142;2023-02-28T02:09:06;99336.78;;;9.44;81.06
12215;BME280;6170;42.206;24.142;2023-02-28T02:11:34;99353.31;;;9.62;81.58
12215;BME280;6170;42.206;24.142;2023-02-28T02:14:30;99365.53;;;9.79;80.89
12215;BME280;6170;42.206;24.142;2023-02-28T02:17:16;99370.69;;;9.81;80.84
12215;BME280;6170;42.206;24.142;2023-02-28T02:23:12;99372.84;;;9.85;80.43
12215;BME280;6170;42.206;24.142;2023-02-28T02:25:45;99382.63;;;10.08;80.43
12215;BME280;6170;42.206;24.142;2023-02-28T02:28:30;99391.44;;;10.16;79.79
12215;BME280;6170;42.206;24.142;2023-02-28T02:31:26;99399.47;;;10.16;79.63
12215;BME280;6170;42.206;24.142;2023-02-28T02:34:27;99411.09;;;10.38;79.08
12215;BME280;6170;42.206;24.142;2023-02-28T02:37:05;99412.88;;;10.31;79.12
12215;BME280;6170;42.206;24.142;2023-02-28T02:39:44;99462.06;;;10.59;79.02
12215;BME280;6170;42.206;24.142;2023-02-28T02:42:16;99413.50;;;10.33;78.70
12215;BME280;6170;42.206;24.142;2023-02-28T02:44:51;99459.69;;;10.64;79.20
12215;BME280;6170;42.206;24.142;2023-02-28T02:47:24;99404.25;;;10.50;78.59
12215;BME280;6170;42.206;24.142;2023-02-28T02:49:57;99450.97;;;10.77;78.58
12215;BME280;6170;42.206;24.142;2023-02-28T02:52:31;99401.66;;;10.42;78.22
12215;BME280;6170;42.206;24.142;2023-02-28T02:55:00;99383.06;;;9.97;79.48
12215;BME280;6170;42.206;24.142;2023-02-28T02:57:31;99454.78;;;10.68;78.32
12215;BME280;6170;42.206;24.142;2023-02-28T03:00:02;99399.16;;;10.41;78.38
12215;BME280;6170;42.206;24.142;2023-02-28T03:02:31;99404.44;;;10.49;77.78
12215;BME280;6170;42.206;24.142;2023-02-28T03:05:03;99460.50;;;10.79;78.19
12215;BME280;6170;42.206;24.142;2023-02-28T03:07:31;99412.31;;;10.35;78.48
12215;BME280;6170;42.206;24.142;2023-02-28T03:09:58;99418.56;;;10.13;79.56
12215;BME280;6170;42.206;24.142;2023-02-28T03:12:44;99468.75;;;10.34;80.28
12215;BME280;6170;42.206;24.142;2023-02-28T03:15:19;99422.59;;;9.95;80.75
12215;BME280;6170;42.206;24.142;2023-02-28T03:17:59;99477.31;;;10.29;80.46
12215;BME280;6170;42.206;24.142;2023-02-28T03:20:36;99443.34;;;9.78;81.65
12215;BME280;6170;42.206;24.142;2023-02-28T03:23:14;99428.25;;;9.39;82.66
12215;BME280;6170;42.206;24.142;2023-02-28T03:25:52;99460.81;;;9.66;83.52
12215;BME280;6170;42.206;24.142;2023-02-28T03:28:29;99446.94;;;9.25;83.96
12215;BME280;6170;42.206;24.142;2023-02-28T03:31:00;99491.31;;;9.79;83.62
12215;BME280;6170;42.206;24.142;2023-02-28T03:33:32;99435.81;;;9.59;84.02
12215;BME280;6170;42.206;24.142;2023-02-28T03:36:02;99431.72;;;10.00;81.65
12215;BME280;6170;42.206;24.142;2023-02-28T03:38:34;99494.50;;;10.20;82.00
12215;BME280;6170;42.206;24.142;2023-02-28T03:41:06;99439.97;;;10.13;81.33
12215;BME280;6170;42.206;24.142;2023-02-28T03:43:40;99438.94;;;10.14;81.11
12215;BME280;6170;42.206;24.142;2023-02-28T03:46:14;99448.50;;;10.31;80.43
12215;BME280;6170;42.206;24.142;2023-02-28T03:48:47;99457.75;;;10.29;80.54
12215;BME280;6170;42.206;24.142;2023-02-28T03:51:19;99467.09;;;10.10;81.40
12215;BME280;6170;42.206;24.142;2023-02-28T03:53:51;99461.97;;;10.23;80.41
12215;BME280;6170;42.206;24.142;2023-02-28T03:56:21;99471.88;;;10.38;80.05
12215;BME280;6170;42.206;24.142;2023-02-28T03:58:53;99465.94;;;10.13;80.87
12215;BME280;6170;42.206;24.142;2023-02-28T04:01:24;99469.56;;;9.60;82.71
12215;BME280;6170;42.206;24.142;2023-02-28T04:03:53;99490.53;;;9.25;84.08
12215;BME280;6170;42.206;24.142;2023-02-28T04:06:22;99531.63;;;9.32;85.77
12215;BME280;6170;42.206;24.142;2023-02-28T04:08:50;99491.66;;;8.69;87.12
12215;BME280;6170;42.206;24.142;2023-02-28T04:11:20;99528.06;;;9.09;86.79
12215;BME280;6170;42.206;24.142;2023-02-28T04:13:48;99494.41;;;8.92;86.55
12215;BME280;6170;42.206;24.142;2023-02-28T04:16:15;99519.88;;;8.72;87.66
12215;BME280;6170;42.206;24.142;2023-02-28T04:18:42;99512.66;;;8.72;87.94
12215;BME280;6170;42.206;24.142;2023-02-28T04:21:09;99518.47;;;8.45;88.39
12215;BME280;6170;42.206;24.142;2023-02-28T04:23:38;99514.94;;;8.20;89.70
12215;BME280;6170;42.206;24.142;2023-02-28T04:26:05;99528.34;;;7.96;89.82
12215;BME280;6170;42.206;24.142;2023-02-28T04:28:32;99527.66;;;7.94;90.90
12215;BME280;6170;42.206;24.142;2023-02-28T04:31:01;99523.97;;;7.71;91.20
12215;BME280;6170;42.206;24.142;2023-02-28T04:33:29;99522.81;;;7.81;91.92
12215;BME280;6170;42.206;24.142;2023-02-28T04:36:00;99531.84;;;8.04;90.82
12215;BME280;6170;42.206;24.142;2023-02-28T04:38:28;99522.31;;;8.02;90.12
12215;BME280;6170;42.206;24.142;2023-02-28T04:40:58;99525.13;;;8.17;90.26
12215;BME280;6170;42.206;24.142;2023-02-28T04:43:26;99512.59;;;8.49;89.04
12215;BME280;6170;42.206;24.142;2023-02-28T04:45:53;99522.25;;;8.50;87.78
12215;BME280;6170;42.206;24.142;2023-02-28T04:48:22;99525.97;;;8.49;88.25
12215;BME280;6170;42.206;24.142;2023-02-28T04:50:49;99531.06;;;8.75;87.47
12215;BME280;6170;42.206;24.142;2023-02-28T04:53:16;99554.09;;;8.68;86.92
12215;BME280;6170;42.206;24.142;2023-02-28T04:55:43;99538.78;;;8.62;87.27
12215;BME280;6170;42.206;24.142;2023-02-28T04:58:11;99546.63;;;8.55;87.22
12215;BME280;6170;42.206;24.142;2023-02-28T05:00:38;99555.63;;;8.71;87.25
12215;BME280;6170;42.206;24.142;2023-02-28T05:03:05;99552.28;;;8.61;88.17
12215;BME280;6170;42.206;24.142;2023-02-28T05:05:32;99552.81;;;8.48;88.40
12215;BME280;6170;42.206;24.142;2023-02-28T05:07:59;99608.38;;;8.69;88.84
12215;BME280;6170;42.206;24.142;2023-02-28T05:10:26;99557.38;;;8.31;88.31
12215;BME280;6170;42.206;24.142;2023-02-28T05:12:52;99572.69;;;8.53;89.43
12215;BME280;6170;42.206;24.142;2023-02-28T05:15:21;99569.97;;;8.70;87.77
12215;BME280;6170;42.206;24.142;2023-02-28T05:17:47;99565.25;;;8.88;86.68
12215;BME280;6170;42.206;24.142;2023-02-28T05:20:14;99523.78;;;8.29;86.72
12215;BME280;6170;42.206;24.142;2023-02-28T05:22:42;99561.50;;;8.50;88.13
12215;BME280;6170;42.206;24.142;2023-02-28T05:25:10;99571.97;;;8.68;87.90
12215;BME280;6170;42.206;24.142;2023-02-28T05:27:38;99566.13;;;9.19;85.16
12215;BME280;6170;42.206;24.142;2023-02-28T05:30:07;99586.09;;;8.92;86.04
12215;BME280;6170;42.206;24.142;2023-02-28T05:32:37;99584.47;;;9.22;85.01
12215;BME280;6170;42.206;24.142;2023-02-28T05:35:08;99583.41;;;9.00;85.07
12215;BME280;6170;42.206;24.142;2023-02-28T05:37:36;99577.72;;;8.95;85.69
12215;BME280;6170;42.206;24.142;2023-02-28T05:40:03;99603.09;;;9.46;84.55
12215;BME280;6170;42.206;24.142;2023-02-28T05:42:32;99624.50;;;9.77;83.95
12215;BME280;6170;42.206;24.142;2023-02-28T05:44:59;99613.38;;;9.58;84.48
12215;BME280;6170;42.206;24.142;2023-02-28T05:47:26;99612.97;;;9.46;83.91
12215;BME280;6170;42.206;24.142;2023-02-28T05:49:54;99615.59;;;9.54;84.62
12215;BME280;6170;42.206;24.142;2023-02-28T05:52:21;99617.56;;;9.60;84.81
12215;BME280;6170;42.206;24.142;2023-02-28T05:54:47;99622.16;;;9.74;84.72
12215;BME280;6170;42.206;24.142;2023-02-28T05:57:14;99622.41;;;9.87;83.88
12215;BME280;6170;42.206;24.142;2023-02-28T05:59:41;99626.88;;;9.95;83.24
12215;BME280;6170;42.206;24.142;2023-02-28T06:02:10;99623.47;;;10.01;83.26
12215;BME280;6170;42.206;24.142;2023-02-28T06:04:38;99632.56;;;10.23;83.03
12215;BME280;6170;42.206;24.142;2023-02-28T06:07:07;99627.06;;;9.93;83.46
12215;BME280;6170;42.206;24.142;2023-02-28T06:09:34;99627.44;;;10.13;82.88
12215;BME280;6170;42.206;24.142;2023-02-28T06:12:03;99631.97;;;10.35;82.62
12215;BME280;6170;42.206;24.142;2023-02-28T06:14:31;99630.91;;;10.14;84.07
12215;BME280;6170;42.206;24.142;2023-02-28T06:16:59;99632.56;;;9.92;84.89
12215;BME280;6170;42.206;24.142;2023-02-28T06:19:26;99639.38;;;10.03;84.83
12215;BME280;6170;42.206;24.142;2023-02-28T06:21:54;99638.00;;;9.84;85.13
12215;BME280;6170;42.206;24.142;2023-02-28T06:24:24;99642.97;;;9.64;85.57
12215;BME280;6170;42.206;24.142;2023-02-28T06:26:53;99640.91;;;9.97;85.48
12215;BME280;6170;42.206;24.142;2023-02-28T06:29:20;99604.09;;;9.99;85.43
12215;BME280;6170;42.206;24.142;2023-02-28T06:31:47;99614.19;;;10.20;85.13
12215;BME280;6170;42.206;24.142;2023-02-28T06:34:14;99636.53;;;10.04;84.86
12215;BME280;6170;42.206;24.142;2023-02-28T06:36:41;99634.44;;;9.61;87.21
12215;BME280;6170;42.206;24.142;2023-02-28T06:39:09;99642.72;;;9.74;87.63
12215;BME280;6170;42.206;24.142;2023-02-28T06:41:37;99644.84;;;9.86;87.13
12215;BME280;6170;42.206;24.142;2023-02-28T06:44:05;99648.50;;;9.63;87.29
12215;BME280;6170;42.206;24.142;2023-02-28T06:46:38;99634.84;;;9.50;88.08
12215;BME280;6170;42.206;24.142;2023-02-28T06:49:05;99659.59;;;9.43;89.37
12215;BME280;6170;42.206;24.142;2023-02-28T06:51:34;99706.91;;;9.43;90.25
12215;BME280;6170;42.206;24.142;2023-02-28T06:54:02;99650.25;;;8.92;90.34
12215;BME280;6170;42.206;24.142;2023-02-28T06:56:29;99658.56;;;9.06;90.14
12215;BME280;6170;42.206;24.142;2023-02-28T06:58:57;99663.22;;;9.20;90.09
12215;BME280;6170;42.206;24.142;2023-02-28T07:01:24;99657.31;;;9.32;90.00
12215;BME280;6170;42.206;24.142;2023-02-28T07:03:50;99659.75;;;9.11;89.35
12215;BME280;6170;42.206;24.142;2023-02-28T07:06:18;99658.03;;;9.18;90.22
12215;BME280;6170;42.206;24.142;2023-02-28T07:08:45;99656.38;;;9.09;89.63
12215;BME280;6170;42.206;24.142;2023-02-28T07:11:12;99646.34;;;9.19;89.17
12215;BME280;6170;42.206;24.142;2023-02-28T07:13:38;99665.38;;;9.24;89.75
12215;BME280;6170;42.206;24.142;2023-02-28T07:16:12;99652.34;;;9.13;89.78
12215;BME280;6170;42.206;24.142;2023-02-28T07:18:39;99664.66;;;9.30;89.97
12215;BME280;6170;42.206;24.142;2023-02-28T07:21:08;99657.13;;;9.42;89.08
12215;BME280;6170;42.206;24.142;2023-02-28T07:23:36;99649.84;;;9.12;88.66
12215;BME280;6170;42.206;24.142;2023-02-28T07:26:04;99668.06;;;9.24;89.65
12215;BME280;6170;42.206;24.142;2023-02-28T07:28:32;99676.41;;;9.21;89.26
12215;BME280;6170;42.206;24.142;2023-02-28T07:31:03;99675.66;;;9.43;89.23
12215;BME280;6170;42.206;24.142;2023-02-28T07:33:32;99677.66;;;9.50;88.38
12215;BME280;6170;42.206;24.142;2023-02-28T07:36:01;99683.63;;;9.52;87.73
12215;BME280;6170;42.206;24.142;2023-02-28T07:38:27;99733.84;;;9.41;89.43
12215;BME280;6170;42.206;24.142;2023-02-28T07:40:54;99729.03;;;9.76;89.31
12215;BME280;6170;42.206;24.142;2023-02-28T07:43:21;99724.53;;;9.76;89.37
12215;BME280;6170;42.206;24.142;2023-02-28T07:45:48;99677.59;;;9.58;88.89
12215;BME280;6170;42.206;24.142;2023-02-28T07:48:14;99673.03;;;9.66;88.19
12215;BME280;6170;42.206;24.142;2023-02-28T07:50:43;99683.44;;;9.61;87.67
12215;BME280;6170;42.206;24.142;2023-02-28T07:53:09;99731.03;;;10.21;87.75
12215;BME280;6170;42.206;24.142;2023-02-28T07:55:36;99696.13;;;9.67;87.71
12215;BME280;6170;42.206;24.142;2023-02-28T07:58:03;99739.38;;;9.79;88.25
12215;BME280;6170;42.206;24.142;2023-02-28T08:00:30;99700.69;;;9.59;88.34
12215;BME280;6170;42.206;24.142;2023-02-28T08:02:58;99691.13;;;9.64;88.38
12215;BME280;6170;42.206;24.142;2023-02-28T08:05:24;99684.00;;;9.48;87.71
12215;BME280;6170;42.206;24.142;2023-02-28T08:07:52;99691.34;;;9.55;88.92
12215;BME280;6170;42.206;24.142;2023-02-28T08:10:19;99689.06;;;9.74;88.24
12215;BME280;6170;42.206;24.142;2023-02-28T08:12:46;99683.06;;;9.72;87.67
12215;BME280;6170;42.206;24.142;2023-02-28T08:15:13;99736.16;;;9.91;88.59
12215;BME280;6170;42.206;24.142;2023-02-28T08:17:40;99744.06;;;9.85;88.41
12215;BME280;6170;42.206;24.142;2023-02-28T08:20:07;99688.50;;;9.48;88.64
12215;BME280;6170;42.206;24.142;2023-02-28T08:22:35;99685.28;;;9.61;88.14
12215;BME280;6170;42.206;24.142;2023-02-28T08:25:05;99688.19;;;9.82;88.63
12215;BME280;6170;42.206;24.142;2023-02-28T08:27:32;99683.38;;;9.77;86.90
12215;BME280;6170;42.206;24.142;2023-02-28T08:29:59;99694.78;;;9.71;87.83
12215;BME280;6170;42.206;24.142;2023-02-28T08:32:26;99688.50;;;9.87;87.21
12215;BME280;6170;42.206;24.142;2023-02-28T08:34:53;99680.72;;;9.69;86.61
12215;BME280;6170;42.206;24.142;2023-02-28T08:37:19;99676.41;;;9.68;87.87
12215;BME280;6170;42.206;24.142;2023-02-28T08:39:46;99720.00;;;10.16;87.10
12215;BME280;6170;42.206;24.142;2023-02-28T08:42:14;99669.69;;;9.72;87.75
12215;BME280;6170;42.206;24.142;2023-02-28T08:44:41;99718.56;;;9.97;88.20
12215;BME280;6170;42.206;24.142;2023-02-28T08:47:08;99675.50;;;9.76;88.46
12215;BME280;6170;42.206;24.142;2023-02-28T08:49:36;99668.84;;;9.72;88.93
12215;BME280;6170;42.206;24.142;2023-02-28T08:52:02;99668.69;;;9.65;87.77
12215;BME280;6170;42.206;24.142;2023-02-28T08:54:29;99665.84;;;9.67;88.08
12215;BME280;6170;42.206;24.142;2023-02-28T08:56:57;99663.75;;;9.54;87.65
12215;BME280;6170;42.206;24.142;2023-02-28T08:59:25;99717.41;;;9.91;88.27
12215;BME280;6170;42.206;24.142;2023-02-28T09:01:52;99665.13;;;9.81;87.68
12215;BME280;6170;42.206;24.142;2023-02-28T09:04:19;99656.88;;;9.82;86.64
12215;BME280;6170;42.206;24.142;2023-02-28T09:06:46;99671.25;;;9.59;87.01
12215;BME280;6170;42.206;24.142;2023-02-28T09:09:14;99725.34;;;10.16;87.72
12215;BME280;6170;42.206;24.142;2023-02-28T09:11:41;99677.44;;;9.90;86.69
12215;BME280;6170;42.206;24.142;2023-02-28T09:14:08;99663.44;;;9.80;85.97
12215;BME280;6170;42.206;24.142;2023-02-28T09:16:36;99730.91;;;10.06;87.58
12215;BME280;6170;42.206;24.142;2023-02-28T09:19:03;99688.09;;;9.98;86.63
12215;BME280;6170;42.206;24.142;2023-02-28T09:21:29;99658.13;;;9.72;86.59
12215;BME280;6170;42.206;24.142;2023-02-28T09:23:56;99674.50;;;9.77;87.41
12215;BME280;6170;42.206;24.142;2023-02-28T09:26:24;99718.03;;;10.02;87.09
12215;BME280;6170;42.206;24.142;2023-02-28T09:28:54;99669.91;;;9.93;87.00
12215;BME280;6170;42.206;24.142;2023-02-28T09:31:23;99708.69;;;10.28;86.15
12215;BME280;6170;42.206;24.142;2023-02-28T09:33:53;99642.25;;;9.70;84.80
12215;BME280;6170;42.206;24.142;2023-02-28T09:36:21;99667.28;;;10.08;86.09
12215;BME280;6170;42.206;24.142;2023-02-28T09:38:49;99640.66;;;9.84;85.35
12215;BME280;6170;42.206;24.142;2023-02-28T09:41:20;99659.72;;;10.20;85.43
12215;BME280;6170;42.206;24.142;2023-02-28T09:43:50;99648.09;;;10.27;84.59
12215;BME280;6170;42.206;24.142;2023-02-28T09:46:27;99657.44;;;10.09;84.74
12215;BME280;6170;42.206;24.142;2023-02-28T09:48:56;99655.81;;;10.00;84.61
12215;BME280;6170;42.206;24.142;2023-02-28T09:51:43;99668.22;;;10.23;84.82
12215;BME280;6170;42.206;24.142;2023-02-28T09:54:14;99673.66;;;10.07;85.11
12215;BME280;6170;42.206;24.142;2023-02-28T09:56:45;99665.31;;;10.02;84.68
12215;BME280;6170;42.206;24.142;2023-02-28T09:59:25;99669.44;;;10.13;85.01
12215;BME280;6170;42.206;24.142;2023-02-28T10:02:02;99667.63;;;10.05;85.49
12215;BME280;6170;42.206;24.142;2023-02-28T10:04:46;99680.69;;;10.08;85.59
12215;BME280;6170;42.206;24.142;2023-02-28T10:07:24;99655.50;;;10.25;85.33
12215;BME280;6170;42.206;24.142;2023-02-28T10:09:57;99651.88;;;10.10;85.23
12215;BME280;6170;42.206;24.142;2023-02-28T10:12:26;99657.69;;;10.14;85.48
12215;BME280;6170;42.206;24.142;2023-02-28T10:14:55;99655.59;;;10.32;85.61
12215;BME280;6170;42.206;24.142;2023-02-28T10:17:27;99649.41;;;10.01;85.85
12215;BME280;6170;42.206;24.142;2023-02-28T10:20:03;99650.44;;;10.00;85.91
12215;BME280;6170;42.206;24.142;2023-02-28T10:22:38;99651.22;;;10.08;86.07
12215;BME280;6170;42.206;24.142;2023-02-28T10:25:17;99651.53;;;9.82;88.55
12215;BME280;6170;42.206;24.142;2023-02-28T10:27:44;99662.53;;;9.96;87.58
12215;BME280;6170;42.206;24.142;2023-02-28T10:30:12;99664.44;;;9.79;88.84
12215;BME280;6170;42.206;24.142;2023-02-28T10:32:40;99664.16;;;9.97;88.65
12215;BME280;6170;42.206;24.142;2023-02-28T10:35:16;99664.44;;;9.79;88.96
12215;BME280;6170;42.206;24.142;2023-02-28T10:37:46;99660.28;;;9.76;90.51
12215;BME280;6170;42.206;24.142;2023-02-28T10:40:28;99646.53;;;9.48;89.91
12215;BME280;6170;42.206;24.142;2023-02-28T10:42:56;99638.88;;;9.45;90.47
12215;BME280;6170;42.206;24.142;2023-02-28T10:45:24;99634.41;;;9.30;90.13
12215;BME280;6170;42.206;24.142;2023-02-28T10:47:54;99617.63;;;9.44;92.03
12215;BME280;6170;42.206;24.142;2023-02-28T10:50:32;99647.53;;;9.56;93.38
12215;BME280;6170;42.206;24.142;2023-02-28T10:53:15;99600.31;;;9.32;93.38
12215;BME280;6170;42.206;24.142;2023-02-28T10:55:43;99609.88;;;9.57;93.29
12215;BME280;6170;42.206;24.142;2023-02-28T10:58:23;99613.44;;;9.80;92.90
12215;BME280;6170;42.206;24.142;2023-02-28T11:00:50;99608.81;;;9.35;92.70
12215;BME280;6170;42.206;24.142;2023-02-28T11:03:28;99608.44;;;9.46;93.22
12215;BME280;6170;42.206;24.142;2023-02-28T11:05:57;99611.13;;;9.46;93.54
12215;BME280;6170;42.206;24.142;2023-02-28T11:08:23;99606.56;;;9.16;93.97
12215;BME280;6170;42.206;24.142;2023-02-28T11:10:54;99596.13;;;9.29;93.36
12215;BME280;6170;42.206;24.142;2023-02-28T11:13:26;99576.13;;;9.17;93.20
12215;BME280;6170;42.206;24.142;2023-02-28T11:15:55;99580.16;;;9.13;93.51
12215;BME280;6170;42.206;24.142;2023-02-28T11:18:27;99600.34;;;9.24;93.68
12215;BME280;6170;42.206;24.142;2023-02-28T11:20:59;99597.25;;;9.04;93.64
12215;BME280;6170;42.206;24.142;2023-02-28T11:23:30;99601.47;;;9.37;93.76
12215;BME280;6170;42.206;24.142;2023-02-28T11:26:00;99605.94;;;9.06;93.08
12215;BME280;6170;42.206;24.142;2023-02-28T11:28:30;99604.94;;;8.99;94.35
12215;BME280;6170;42.206;24.142;2023-02-28T11:31:04;99609.44;;;9.07;95.70
12215;BME280;6170;42.206;24.142;2023-02-28T11:33:32;99605.81;;;8.91;96.57
12215;BME280;6170;42.206;24.142;2023-02-28T11:36:12;99596.50;;;8.79;97.68
12215;BME280;6170;42.206;24.142;2023-02-28T11:38:40;99592.78;;;8.96;98.48
12215;BME280;6170;42.206;24.142;2023-02-28T11:41:34;99585.97;;;8.78;98.16
12215;BME280;6170;42.206;24.142;2023-02-28T11:44:23;99589.16;;;8.73;100.00
12215;BME280;6170;42.206;24.142;2023-02-28T11:46:58;99586.47;;;8.81;100.00
12215;BME280;6170;42.206;24.142;2023-02-28T11:49:33;99586.59;;;8.96;100.00
12215;BME280;6170;42.206;24.142;2023-02-28T11:52:14;99579.47;;;8.80;100.00
12215;BME280;6170;42.206;24.142;2023-02-28T11:54:58;99574.88;;;9.05;100.00
12215;BME280;6170;42.206;24.142;2023-02-28T11:57:37;99566.19;;;8.95;100.00
12215;BME280;6170;42.206;24.142;2023-02-28T12:00:19;99573.34;;;9.11;99.69
12215;BME280;6170;42.206;24.142;2023-02-28T12:03:03;99565.50;;;9.09;98.97
12215;BME280;6170;42.206;24.142;2023-02-28T12:05:34;99560.78;;;9.19;98.86
12215;BME280;6170;42.206;24.142;2023-02-28T12:08:09;99616.44;;;9.55;100.00
12215;BME280;6170;42.206;24.142;2023-02-28T12:10:56;99609.25;;;9.55;100.00
12215;BME280;6170;42.206;24.142;2023-02-28T12:13:32;99558.34;;;9.63;98.70
12215;BME280;6170;42.206;24.142;2023-02-28T12:16:17;99560.56;;;9.52;97.19
12215;BME280;6170;42.206;24.142;2023-02-28T12:19:02;99556.34;;;9.34;98.16
12215;BME280;6170;42.206;24.142;2023-02-28T12:21:46;99558.41;;;9.24;97.70
12215;BME280;6170;42.206;24.142;2023-02-28T12:24:42;99564.34;;;9.42;97.39
12215;BME280;6170;42.206;24.142;2023-02-28T12:27:14;99569.31;;;9.45;96.04
12215;BME280;6170;42.206;24.142;2023-02-28T12:29:46;99583.88;;;9.43;95.84
12215;BME280;6170;42.206;24.142;2023-02-28T12:32:19;99572.34;;;9.42;95.45
12215;BME280;6170;42.206;24.142;2023-02-28T12:34:50;99581.16;;;9.51;95.46
12215;BME280;6170;42.206;24.142;2023-02-28T12:37:22;99570.59;;;9.58;94.69
12215;BME280;6170;42.206;24.142;2023-02-28T12:39:59;99572.91;;;9.61;94.45
12215;BME280;6170;42.206;24.142;2023-02-28T12:42:33;99561.78;;;9.49;93.77
12215;BME280;6170;42.206;24.142;2023-02-28T12:45:05;99567.69;;;9.67;93.65
12215;BME280;6170;42.206;24.142;2023-02-28T12:47:37;99562.59;;;9.50;93.81
12215;BME280;6170;42.206;24.142;2023-02-28T12:50:06;99571.63;;;9.48;93.40
12215;BME280;6170;42.206;24.142;2023-02-28T12:52:43;99570.31;;;9.44;94.10
12215;BME280;6170;42.206;24.142;2023-02-28T12:55:20;99556.38;;;9.57;93.21
12215;BME280;6170;42.206;24.142;2023-02-28T12:57:58;99559.25;;;9.56;92.94
12215;BME280;6170;42.206;24.142;2023-02-28T13:00:33;99556.44;;;9.18;93.16
12215;BME280;6170;42.206;24.142;2023-02-28T13:03:27;99606.19;;;9.58;94.16
12215;BME280;6170;42.206;24.142;2023-02-28T13:06:21;99552.53;;;9.29;93.64
12215;BME280;6170;42.206;24.142;2023-02-28T13:09:03;99548.41;;;9.49;93.30
12215;BME280;6170;42.206;24.142;2023-02-28T13:11:38;99550.91;;;9.51;92.87
12215;BME280;6170;42.206;24.142;2023-02-28T13:14:14;99606.03;;;10.05;92.10
12215;BME280;6170;42.206;24.142;2023-02-28T13:17:01;99548.88;;;9.53;92.05
12215;BME280;6170;42.206;24.142;2023-02-28T13:19:31;99547.69;;;9.55;91.80
12215;BME280;6170;42.206;24.142;2023-02-28T13:22:00;99552.34;;;9.30;91.58
12215;BME280;6170;42.206;24.142;2023-02-28T13:24:44;99556.91;;;9.53;92.38
12215;BME280;6170;42.206;24.142;2023-02-28T13:27:22;99566.91;;;9.59;92.04
12215;BME280;6170;42.206;24.142;2023-02-28T13:29:50;99560.28;;;9.69;92.45